sensor_id;sensor_type;location;lat;lon;timestamp;P1;durP1;ratioP1;P2;durP2;ratioP2
84695;SDS011;74913;40.204;44.532;2023-12-20T00:00:56;28.23;;;9.68;;
84695;SDS011;74913;40.204;44.532;2023-12-20T00:03:21;21.92;;;9.35;;
84695;SDS011;74913;40.204;44.532;2023-12-20T00:05:49;22.50;;;8.48;;
84695;SDS011;74913;40.204;44.532;2023-12-20T00:08:15;24.30;;;9.30;;
84695;SDS011;74913;40.204;44.532;2023-12-20T00:10:40;17.83;;;7.72;;
84695;SDS011;74913;40.204;44.532;2023-12-20T00:13:06;22.85;;;7.53;;
84695;SDS011;74913;40.204;44.532;2023-12-20T00:15:33;19.75;;;7.07;;
84695;SDS011;74913;40.204;44.532;2023-12-20T00:17:59;20.13;;;7.65;;
84695;SDS011;74913;40.204;44.532;2023-12-20T00:20:25;19.42;;;7.00;;
84695;SDS011;74913;40.204;44.532;2023-12-20T00:22:51;20.70;;;7.47;;
84695;SDS011;74913;40.204;44.532;2023-12-20T00:25:19;19.23;;;6.93;;
84695;SDS011;74913;40.204;44.532;2023-12-20T00:27:44;21.80;;;6.80;;
84695;SDS011;74913;40.204;44.532;2023-12-20T00:30:10;19.92;;;7.22;;
84695;SDS011;74913;40.204;44.532;2023-12-20T00:32:36;17.55;;;6.65;;
84695;SDS011;74913;40.204;44.532;2023-12-20T00:35:01;23.00;;;6.97;;
84695;SDS011;74913;40.204;44.532;2023-12-20T00:37:27;18.85;;;6.53;;
84695;SDS011;74913;40.204;44.532;2023-12-20T00:39:53;29.73;;;8.70;;
84695;SDS011;74913;40.204;44.532;2023-12-20T00:42:18;37.15;;;8.18;;
84695;SDS011;74913;40.204;44.532;2023-12-20T00:44:44;33.00;;;8.98;;
84695;SDS011;74913;40.204;44.532;2023-12-20T00:47:10;28.42;;;7.35;;
84695;SDS011;74913;40.204;44.532;2023-12-20T00:49:35;25.15;;;7.40;;
84695;SDS011;74913;40.204;44.532;2023-12-20T00:52:01;26.33;;;7.63;;
84695;SDS011;74913;40.204;44.532;2023-12-20T00:54:26;23.05;;;6.80;;
84695;SDS011;74913;40.204;44.532;2023-12-20T00:56:52;15.55;;;6.03;;
84695;SDS011;74913;40.204;44.532;2023-12-20T00:59:19;13.10;;;6.18;;
84695;SDS011;74913;40.204;44.532;2023-12-20T01:01:44;16.75;;;6.25;;
84695;SDS011;74913;40.204;44.532;2023-12-20T01:04:10;15.35;;;5.60;;
84695;SDS011;74913;40.204;44.532;2023-12-20T01:06:36;19.75;;;6.47;;
84695;SDS011;74913;40.204;44.532;2023-12-20T01:09:01;18.83;;;6.07;;
84695;SDS011;74913;40.204;44.532;2023-12-20T01:11:27;13.60;;;6.03;;
84695;SDS011;74913;40.204;44.532;2023-12-20T01:13:53;15.70;;;5.47;;
84695;SDS011;74913;40.204;44.532;2023-12-20T01:16:19;14.82;;;5.38;;
84695;SDS011;74913;40.204;44.532;2023-12-20T01:18:44;14.60;;;5.30;;
84695;SDS011;74913;40.204;44.532;2023-12-20T01:21:10;22.38;;;6.30;;
84695;SDS011;74913;40.204;44.532;2023-12-20T01:23:35;16.17;;;6.47;;
84695;SDS011;74913;40.204;44.532;2023-12-20T01:26:01;18.25;;;4.97;;
84695;SDS011;74913;40.204;44.532;2023-12-20T01:28:27;19.77;;;6.75;;
84695;SDS011;74913;40.204;44.532;2023-12-20T01:30:53;19.45;;;6.45;;
84695;SDS011;74913;40.204;44.532;2023-12-20T01:33:19;14.38;;;5.35;;
84695;SDS011;74913;40.204;44.532;2023-12-20T01:35:44;17.30;;;6.13;;
84695;SDS011;74913;40.204;44.532;2023-12-20T01:38:10;16.60;;;5.82;;
84695;SDS011;74913;40.204;44.532;2023-12-20T01:40:36;18.45;;;6.97;;
84695;SDS011;74913;40.204;44.532;2023-12-20T01:43:02;17.50;;;6.28;;
84695;SDS011;74913;40.204;44.532;2023-12-20T01:45:33;16.25;;;6.63;;
84695;SDS011;74913;40.204;44.532;2023-12-20T01:47:59;16.08;;;7.40;;
84695;SDS011;74913;40.204;44.532;2023-12-20T01:50:27;20.77;;;6.93;;
84695;SDS011;74913;40.204;44.532;2023-12-20T01:52:53;20.83;;;7.30;;
84695;SDS011;74913;40.204;44.532;2023-12-20T01:55:22;23.65;;;8.35;;
84695;SDS011;74913;40.204;44.532;2023-12-20T01:57:49;23.65;;;7.25;;
84695;SDS011;74913;40.204;44.532;2023-12-20T02:00:16;16.27;;;7.40;;
84695;SDS011;74913;40.204;44.532;2023-12-20T02:02:43;22.15;;;7.53;;
84695;SDS011;74913;40.204;44.532;2023-12-20T02:05:10;22.08;;;8.13;;
84695;SDS011;74913;40.204;44.532;2023-12-20T02:07:37;33.70;;;9.05;;
84695;SDS011;74913;40.204;44.532;2023-12-20T02:10:03;27.00;;;8.63;;
84695;SDS011;74913;40.204;44.532;2023-12-20T02:12:31;27.90;;;9.98;;
84695;SDS011;74913;40.204;44.532;2023-12-20T02:14:57;33.53;;;10.52;;
84695;SDS011;74913;40.204;44.532;2023-12-20T02:17:23;34.83;;;9.75;;
84695;SDS011;74913;40.204;44.532;2023-12-20T02:19:49;34.33;;;9.73;;
84695;SDS011;74913;40.204;44.532;2023-12-20T02:22:15;37.00;;;9.80;;
84695;SDS011;74913;40.204;44.532;2023-12-20T02:24:40;29.20;;;10.07;;
84695;SDS011;74913;40.204;44.532;2023-12-20T02:27:06;40.92;;;11.82;;
84695;SDS011;74913;40.204;44.532;2023-12-20T02:29:33;36.55;;;11.20;;
84695;SDS011;74913;40.204;44.532;2023-12-20T02:31:59;33.03;;;10.52;;
84695;SDS011;74913;40.204;44.532;2023-12-20T02:34:25;30.30;;;11.25;;
84695;SDS011;74913;40.204;44.532;2023-12-20T02:36:50;34.30;;;10.68;;
84695;SDS011;74913;40.204;44.532;2023-12-20T02:39:16;28.85;;;9.32;;
84695;SDS011;74913;40.204;44.532;2023-12-20T02:41:43;30.58;;;8.50;;
84695;SDS011;74913;40.204;44.532;2023-12-20T02:44:09;25.23;;;7.80;;
84695;SDS011;74913;40.204;44.532;2023-12-20T02:46:35;27.13;;;9.48;;
84695;SDS011;74913;40.204;44.532;2023-12-20T02:49:00;28.20;;;8.43;;
84695;SDS011;74913;40.204;44.532;2023-12-20T02:51:26;23.23;;;8.55;;
84695;SDS011;74913;40.204;44.532;2023-12-20T02:53:51;19.80;;;8.05;;
84695;SDS011;74913;40.204;44.532;2023-12-20T02:56:17;16.00;;;6.93;;
84695;SDS011;74913;40.204;44.532;2023-12-20T02:58:43;22.00;;;7.53;;
84695;SDS011;74913;40.204;44.532;2023-12-20T03:01:08;20.52;;;7.80;;
84695;SDS011;74913;40.204;44.532;2023-12-20T03:03:34;22.70;;;7.63;;
84695;SDS011;74913;40.204;44.532;2023-12-20T03:05:59;22.52;;;8.93;;
84695;SDS011;74913;40.204;44.532;2023-12-20T03:08:25;25.02;;;9.07;;
84695;SDS011;74913;40.204;44.532;2023-12-20T03:10:51;31.30;;;9.88;;
84695;SDS011;74913;40.204;44.532;2023-12-20T03:13:16;32.08;;;10.63;;
84695;SDS011;74913;40.204;44.532;2023-12-20T03:15:42;34.58;;;10.52;;
84695;SDS011;74913;40.204;44.532;2023-12-20T03:18:07;28.88;;;9.90;;
84695;SDS011;74913;40.204;44.532;2023-12-20T03:20:33;31.77;;;10.25;;
84695;SDS011;74913;40.204;44.532;2023-12-20T03:23:02;34.67;;;10.18;;
84695;SDS011;74913;40.204;44.532;2023-12-20T03:25:28;29.58;;;10.90;;
84695;SDS011;74913;40.204;44.532;2023-12-20T03:27:54;41.03;;;12.38;;
84695;SDS011;74913;40.204;44.532;2023-12-20T03:30:19;36.90;;;12.98;;
84695;SDS011;74913;40.204;44.532;2023-12-20T03:32:45;47.67;;;13.32;;
84695;SDS011;74913;40.204;44.532;2023-12-20T03:35:12;32.60;;;11.50;;
84695;SDS011;74913;40.204;44.532;2023-12-20T03:37:37;36.50;;;11.63;;
84695;SDS011;74913;40.204;44.532;2023-12-20T03:40:03;32.25;;;11.40;;
84695;SDS011;74913;40.204;44.532;2023-12-20T03:42:29;33.67;;;12.05;;
84695;SDS011;74913;40.204;44.532;2023-12-20T03:44:54;31.35;;;10.68;;
84695;SDS011;74913;40.204;44.532;2023-12-20T03:47:20;26.02;;;10.23;;
84695;SDS011;74913;40.204;44.532;2023-12-20T03:49:46;32.40;;;10.65;;
84695;SDS011;74913;40.204;44.532;2023-12-20T03:52:11;26.80;;;11.32;;
84695;SDS011;74913;40.204;44.532;2023-12-20T03:54:37;26.67;;;10.48;;
84695;SDS011;74913;40.204;44.532;2023-12-20T03:57:03;28.60;;;9.85;;
84695;SDS011;74913;40.204;44.532;2023-12-20T03:59:29;23.35;;;9.80;;
84695;SDS011;74913;40.204;44.532;2023-12-20T04:01:55;27.42;;;9.35;;
84695;SDS011;74913;40.204;44.532;2023-12-20T04:04:21;30.00;;;10.63;;
84695;SDS011;74913;40.204;44.532;2023-12-20T04:06:46;31.20;;;11.27;;
84695;SDS011;74913;40.204;44.532;2023-12-20T04:09:12;36.58;;;12.30;;
84695;SDS011;74913;40.204;44.532;2023-12-20T04:11:38;42.60;;;12.60;;
84695;SDS011;74913;40.204;44.532;2023-12-20T04:14:03;38.47;;;13.93;;
84695;SDS011;74913;40.204;44.532;2023-12-20T04:16:32;39.10;;;13.65;;
84695;SDS011;74913;40.204;44.532;2023-12-20T04:18:58;32.67;;;10.55;;
84695;SDS011;74913;40.204;44.532;2023-12-20T04:21:24;38.22;;;13.02;;
84695;SDS011;74913;40.204;44.532;2023-12-20T04:23:49;36.00;;;14.18;;
84695;SDS011;74913;40.204;44.532;2023-12-20T04:26:15;30.55;;;11.73;;
84695;SDS011;74913;40.204;44.532;2023-12-20T04:28:40;32.22;;;12.73;;
84695;SDS011;74913;40.204;44.532;2023-12-20T04:31:07;29.38;;;13.18;;
84695;SDS011;74913;40.204;44.532;2023-12-20T04:33:32;39.97;;;12.55;;
84695;SDS011;74913;40.204;44.532;2023-12-20T04:35:58;33.75;;;11.10;;
84695;SDS011;74913;40.204;44.532;2023-12-20T04:38:25;38.75;;;13.70;;
84695;SDS011;74913;40.204;44.532;2023-12-20T04:40:50;40.47;;;13.13;;
84695;SDS011;74913;40.204;44.532;2023-12-20T04:43:16;33.70;;;13.05;;
84695;SDS011;74913;40.204;44.532;2023-12-20T04:45:42;29.42;;;12.10;;
84695;SDS011;74913;40.204;44.532;2023-12-20T04:48:07;27.40;;;12.30;;
84695;SDS011;74913;40.204;44.532;2023-12-20T04:50:34;30.00;;;12.23;;
84695;SDS011;74913;40.204;44.532;2023-12-20T04:53:00;34.83;;;13.20;;
84695;SDS011;74913;40.204;44.532;2023-12-20T04:55:26;33.13;;;13.38;;
84695;SDS011;74913;40.204;44.532;2023-12-20T04:57:51;40.75;;;13.32;;
84695;SDS011;74913;40.204;44.532;2023-12-20T05:00:17;36.38;;;13.77;;
84695;SDS011;74913;40.204;44.532;2023-12-20T05:02:43;36.50;;;13.98;;
84695;SDS011;74913;40.204;44.532;2023-12-20T05:05:08;33.10;;;12.90;;
84695;SDS011;74913;40.204;44.532;2023-12-20T05:07:34;34.85;;;15.27;;
84695;SDS011;74913;40.204;44.532;2023-12-20T05:10:00;32.63;;;12.65;;
84695;SDS011;74913;40.204;44.532;2023-12-20T05:12:25;36.80;;;14.48;;
84695;SDS011;74913;40.204;44.532;2023-12-20T05:14:54;37.70;;;13.60;;
84695;SDS011;74913;40.204;44.532;2023-12-20T05:17:20;36.10;;;15.35;;
84695;SDS011;74913;40.204;44.532;2023-12-20T05:19:45;39.78;;;16.20;;
84695;SDS011;74913;40.204;44.532;2023-12-20T05:22:11;41.08;;;16.30;;
84695;SDS011;74913;40.204;44.532;2023-12-20T05:24:37;40.90;;;14.40;;
84695;SDS011;74913;40.204;44.532;2023-12-20T05:27:02;40.90;;;15.70;;
84695;SDS011;74913;40.204;44.532;2023-12-20T05:29:28;41.80;;;16.25;;
84695;SDS011;74913;40.204;44.532;2023-12-20T05:31:54;44.28;;;14.20;;
84695;SDS011;74913;40.204;44.532;2023-12-20T05:34:19;39.65;;;15.57;;
84695;SDS011;74913;40.204;44.532;2023-12-20T05:36:45;38.88;;;14.90;;
84695;SDS011;74913;40.204;44.532;2023-12-20T05:39:11;31.80;;;13.65;;
84695;SDS011;74913;40.204;44.532;2023-12-20T05:41:37;30.38;;;14.27;;
84695;SDS011;74913;40.204;44.532;2023-12-20T05:44:02;39.42;;;15.27;;
84695;SDS011;74913;40.204;44.532;2023-12-20T05:46:28;37.75;;;15.95;;
84695;SDS011;74913;40.204;44.532;2023-12-20T05:49:02;44.83;;;17.52;;
84695;SDS011;74913;40.204;44.532;2023-12-20T05:51:28;43.88;;;16.42;;
84695;SDS011;74913;40.204;44.532;2023-12-20T05:53:54;41.10;;;17.15;;
84695;SDS011;74913;40.204;44.532;2023-12-20T05:58:54;39.35;;;15.98;;
84695;SDS011;74913;40.204;44.532;2023-12-20T06:01:35;42.17;;;18.88;;
84695;SDS011;74913;40.204;44.532;2023-12-20T06:04:00;40.10;;;18.55;;
84695;SDS011;74913;40.204;44.532;2023-12-20T06:06:42;37.20;;;15.88;;
84695;SDS011;74913;40.204;44.532;2023-12-20T06:09:38;44.22;;;16.50;;
84695;SDS011;74913;40.204;44.532;2023-12-20T06:12:16;45.60;;;18.73;;
84695;SDS011;74913;40.204;44.532;2023-12-20T06:14:42;49.10;;;21.33;;
84695;SDS011;74913;40.204;44.532;2023-12-20T06:17:07;44.13;;;19.27;;
84695;SDS011;74913;40.204;44.532;2023-12-20T06:19:33;48.13;;;19.42;;
84695;SDS011;74913;40.204;44.532;2023-12-20T06:21:59;33.63;;;16.17;;
84695;SDS011;74913;40.204;44.532;2023-12-20T06:24:24;37.33;;;16.45;;
84695;SDS011;74913;40.204;44.532;2023-12-20T06:26:53;40.08;;;17.05;;
84695;SDS011;74913;40.204;44.532;2023-12-20T06:29:19;42.85;;;17.60;;
84695;SDS011;74913;40.204;44.532;2023-12-20T06:31:45;36.33;;;16.27;;
84695;SDS011;74913;40.204;44.532;2023-12-20T06:34:11;48.63;;;19.38;;
84695;SDS011;74913;40.204;44.532;2023-12-20T06:36:36;50.00;;;19.40;;
84695;SDS011;74913;40.204;44.532;2023-12-20T06:39:02;50.20;;;20.15;;
84695;SDS011;74913;40.204;44.532;2023-12-20T06:41:29;46.78;;;21.40;;
84695;SDS011;74913;40.204;44.532;2023-12-20T06:43:55;42.08;;;18.77;;
84695;SDS011;74913;40.204;44.532;2023-12-20T06:46:21;41.33;;;20.08;;
84695;SDS011;74913;40.204;44.532;2023-12-20T06:48:46;38.03;;;17.17;;
84695;SDS011;74913;40.204;44.532;2023-12-20T06:51:15;48.50;;;20.58;;
84695;SDS011;74913;40.204;44.532;2023-12-20T06:53:42;35.28;;;17.58;;
84695;SDS011;74913;40.204;44.532;2023-12-20T06:56:08;46.40;;;21.35;;
84695;SDS011;74913;40.204;44.532;2023-12-20T06:58:35;40.38;;;19.42;;
84695;SDS011;74913;40.204;44.532;2023-12-20T07:01:02;45.85;;;21.33;;
84695;SDS011;74913;40.204;44.532;2023-12-20T07:03:29;42.75;;;19.80;;
84695;SDS011;74913;40.204;44.532;2023-12-20T07:05:55;58.08;;;23.90;;
84695;SDS011;74913;40.204;44.532;2023-12-20T07:08:20;47.42;;;24.77;;
84695;SDS011;74913;40.204;44.532;2023-12-20T07:10:46;53.25;;;24.08;;
84695;SDS011;74913;40.204;44.532;2023-12-20T07:13:11;48.92;;;24.15;;
84695;SDS011;74913;40.204;44.532;2023-12-20T07:15:37;45.80;;;23.45;;
84695;SDS011;74913;40.204;44.532;2023-12-20T07:18:03;62.30;;;26.98;;
84695;SDS011;74913;40.204;44.532;2023-12-20T07:22:55;46.92;;;23.73;;
84695;SDS011;74913;40.204;44.532;2023-12-20T07:25:21;59.10;;;28.48;;
84695;SDS011;74913;40.204;44.532;2023-12-20T07:27:47;64.07;;;29.73;;
84695;SDS011;74913;40.204;44.532;2023-12-20T07:30:12;57.13;;;28.25;;
84695;SDS011;74913;40.204;44.532;2023-12-20T07:32:38;65.20;;;29.42;;
84695;SDS011;74913;40.204;44.532;2023-12-20T07:35:04;54.83;;;27.67;;
84695;SDS011;74913;40.204;44.532;2023-12-20T07:37:30;50.88;;;23.92;;
84695;SDS011;74913;40.204;44.532;2023-12-20T07:39:56;52.65;;;23.88;;
84695;SDS011;74913;40.204;44.532;2023-12-20T07:42:22;54.53;;;27.90;;
84695;SDS011;74913;40.204;44.532;2023-12-20T07:44:47;54.15;;;27.70;;
84695;SDS011;74913;40.204;44.532;2023-12-20T07:47:13;55.08;;;26.83;;
84695;SDS011;74913;40.204;44.532;2023-12-20T07:49:42;58.42;;;27.08;;
84695;SDS011;74913;40.204;44.532;2023-12-20T07:52:07;62.00;;;26.63;;
84695;SDS011;74913;40.204;44.532;2023-12-20T07:54:33;98.05;;;35.55;;
84695;SDS011;74913;40.204;44.532;2023-12-20T07:56:59;78.18;;;30.75;;
84695;SDS011;74913;40.204;44.532;2023-12-20T07:59:24;61.88;;;29.55;;
84695;SDS011;74913;40.204;44.532;2023-12-20T08:01:50;58.60;;;29.02;;
84695;SDS011;74913;40.204;44.532;2023-12-20T08:04:22;61.75;;;28.17;;
84695;SDS011;74913;40.204;44.532;2023-12-20T08:06:47;56.33;;;26.38;;
84695;SDS011;74913;40.204;44.532;2023-12-20T08:09:16;50.97;;;24.80;;
84695;SDS011;74913;40.204;44.532;2023-12-20T08:11:45;50.75;;;27.67;;
84695;SDS011;74913;40.204;44.532;2023-12-20T08:14:20;52.75;;;25.10;;
84695;SDS011;74913;40.204;44.532;2023-12-20T08:16:46;55.67;;;26.83;;
84695;SDS011;74913;40.204;44.532;2023-12-20T08:19:12;55.80;;;26.10;;
84695;SDS011;74913;40.204;44.532;2023-12-20T08:24:04;56.00;;;28.10;;
84695;SDS011;74913;40.204;44.532;2023-12-20T08:26:30;50.80;;;22.02;;
84695;SDS011;74913;40.204;44.532;2023-12-20T08:28:55;56.40;;;26.63;;
84695;SDS011;74913;40.204;44.532;2023-12-20T08:31:24;60.80;;;27.50;;
84695;SDS011;74913;40.204;44.532;2023-12-20T08:33:51;64.03;;;30.48;;
84695;SDS011;74913;40.204;44.532;2023-12-20T08:36:18;68.22;;;34.05;;
84695;SDS011;74913;40.204;44.532;2023-12-20T08:38:46;68.72;;;36.22;;
84695;SDS011;74913;40.204;44.532;2023-12-20T08:41:12;73.07;;;34.53;;
84695;SDS011;74913;40.204;44.532;2023-12-20T08:43:38;77.15;;;36.78;;
84695;SDS011;74913;40.204;44.532;2023-12-20T08:46:07;67.10;;;37.25;;
84695;SDS011;74913;40.204;44.532;2023-12-20T08:48:34;72.88;;;35.80;;
84695;SDS011;74913;40.204;44.532;2023-12-20T08:51:00;72.03;;;38.40;;
84695;SDS011;74913;40.204;44.532;2023-12-20T08:53:26;68.45;;;33.97;;
84695;SDS011;74913;40.204;44.532;2023-12-20T08:55:52;80.15;;;38.50;;
84695;SDS011;74913;40.204;44.532;2023-12-20T08:58:17;75.75;;;36.63;;
84695;SDS011;74913;40.204;44.532;2023-12-20T09:00:43;77.55;;;35.35;;
84695;SDS011;74913;40.204;44.532;2023-12-20T09:03:09;60.05;;;30.63;;
84695;SDS011;74913;40.204;44.532;2023-12-20T09:05:34;67.55;;;34.90;;
84695;SDS011;74913;40.204;44.532;2023-12-20T09:08:00;80.10;;;37.72;;
84695;SDS011;74913;40.204;44.532;2023-12-20T09:10:25;75.85;;;37.30;;
84695;SDS011;74913;40.204;44.532;2023-12-20T09:12:51;73.55;;;37.05;;
84695;SDS011;74913;40.204;44.532;2023-12-20T09:15:21;66.47;;;30.08;;
84695;SDS011;74913;40.204;44.532;2023-12-20T09:17:50;64.85;;;32.53;;
84695;SDS011;74913;40.204;44.532;2023-12-20T09:20:16;78.60;;;38.88;;
84695;SDS011;74913;40.204;44.532;2023-12-20T09:22:42;77.32;;;37.85;;
84695;SDS011;74913;40.204;44.532;2023-12-20T09:25:09;69.95;;;33.67;;
84695;SDS011;74913;40.204;44.532;2023-12-20T09:27:35;68.82;;;35.50;;
84695;SDS011;74913;40.204;44.532;2023-12-20T09:30:01;76.32;;;37.95;;
84695;SDS011;74913;40.204;44.532;2023-12-20T09:32:27;69.03;;;33.22;;
84695;SDS011;74913;40.204;44.532;2023-12-20T09:34:52;75.05;;;38.25;;
84695;SDS011;74913;40.204;44.532;2023-12-20T09:37:18;70.18;;;37.42;;
84695;SDS011;74913;40.204;44.532;2023-12-20T09:39:44;69.65;;;35.25;;
84695;SDS011;74913;40.204;44.532;2023-12-20T09:42:10;78.75;;;39.58;;
84695;SDS011;74913;40.204;44.532;2023-12-20T09:44:37;79.13;;;37.55;;
84695;SDS011;74913;40.204;44.532;2023-12-20T09:47:06;77.80;;;40.47;;
84695;SDS011;74913;40.204;44.532;2023-12-20T09:49:32;72.28;;;37.30;;
84695;SDS011;74913;40.204;44.532;2023-12-20T09:51:58;78.25;;;38.05;;
84695;SDS011;74913;40.204;44.532;2023-12-20T09:54:25;79.60;;;39.40;;
84695;SDS011;74913;40.204;44.532;2023-12-20T09:56:53;74.90;;;38.63;;
84695;SDS011;74913;40.204;44.532;2023-12-20T09:59:19;71.90;;;38.72;;
84695;SDS011;74913;40.204;44.532;2023-12-20T10:01:45;73.45;;;36.08;;
84695;SDS011;74913;40.204;44.532;2023-12-20T10:04:11;64.28;;;32.08;;
84695;SDS011;74913;40.204;44.532;2023-12-20T10:06:41;73.25;;;36.78;;
84695;SDS011;74913;40.204;44.532;2023-12-20T10:09:08;80.32;;;37.28;;
84695;SDS011;74913;40.204;44.532;2023-12-20T10:11:38;61.72;;;31.35;;
84695;SDS011;74913;40.204;44.532;2023-12-20T10:14:05;66.95;;;33.35;;
84695;SDS011;74913;40.204;44.532;2023-12-20T10:16:32;77.50;;;36.60;;
84695;SDS011;74913;40.204;44.532;2023-12-20T10:19:00;75.10;;;36.08;;
84695;SDS011;74913;40.204;44.532;2023-12-20T10:21:29;64.35;;;31.25;;
84695;SDS011;74913;40.204;44.532;2023-12-20T10:23:55;75.50;;;36.90;;
84695;SDS011;74913;40.204;44.532;2023-12-20T10:26:22;71.95;;;35.15;;
84695;SDS011;74913;40.204;44.532;2023-12-20T10:29:00;68.22;;;33.45;;
84695;SDS011;74913;40.204;44.532;2023-12-20T10:31:27;63.90;;;31.40;;
84695;SDS011;74913;40.204;44.532;2023-12-20T10:33:56;79.97;;;36.58;;
84695;SDS011;74913;40.204;44.532;2023-12-20T10:36:25;64.53;;;34.08;;
84695;SDS011;74913;40.204;44.532;2023-12-20T10:38:53;74.50;;;36.75;;
84695;SDS011;74913;40.204;44.532;2023-12-20T10:41:28;69.85;;;36.35;;
84695;SDS011;74913;40.204;44.532;2023-12-20T10:44:04;75.55;;;37.63;;
84695;SDS011;74913;40.204;44.532;2023-12-20T10:46:33;73.10;;;34.95;;
84695;SDS011;74913;40.204;44.532;2023-12-20T10:48:59;77.50;;;38.55;;
84695;SDS011;74913;40.204;44.532;2023-12-20T10:51:27;76.97;;;38.78;;
84695;SDS011;74913;40.204;44.532;2023-12-20T10:53:55;79.88;;;37.40;;
84695;SDS011;74913;40.204;44.532;2023-12-20T10:56:22;86.90;;;39.90;;
84695;SDS011;74913;40.204;44.532;2023-12-20T10:58:51;80.72;;;38.33;;
84695;SDS011;74913;40.204;44.532;2023-12-20T11:01:18;73.72;;;36.75;;
84695;SDS011;74913;40.204;44.532;2023-12-20T11:03:48;86.32;;;40.95;;
84695;SDS011;74913;40.204;44.532;2023-12-20T11:06:35;83.20;;;42.47;;
84695;SDS011;74913;40.204;44.532;2023-12-20T11:09:10;83.63;;;40.28;;
84695;SDS011;74913;40.204;44.532;2023-12-20T11:14:20;80.18;;;40.60;;
84695;SDS011;74913;40.204;44.532;2023-12-20T11:16:50;87.18;;;41.88;;
84695;SDS011;74913;40.204;44.532;2023-12-20T11:19:21;77.40;;;34.60;;
84695;SDS011;74913;40.204;44.532;2023-12-20T11:21:47;81.43;;;39.65;;
84695;SDS011;74913;40.204;44.532;2023-12-20T11:24:13;83.70;;;40.95;;
84695;SDS011;74913;40.204;44.532;2023-12-20T11:26:41;83.80;;;41.53;;
84695;SDS011;74913;40.204;44.532;2023-12-20T11:29:29;84.05;;;39.85;;
84695;SDS011;74913;40.204;44.532;2023-12-20T11:31:56;76.25;;;40.15;;
84695;SDS011;74913;40.204;44.532;2023-12-20T11:34:22;84.60;;;41.88;;
84695;SDS011;74913;40.204;44.532;2023-12-20T11:36:56;77.93;;;37.72;;
84695;SDS011;74913;40.204;44.532;2023-12-20T11:39:23;78.72;;;42.88;;
84695;SDS011;74913;40.204;44.532;2023-12-20T11:41:51;85.72;;;41.13;;
84695;SDS011;74913;40.204;44.532;2023-12-20T11:44:17;83.25;;;39.33;;
84695;SDS011;74913;40.204;44.532;2023-12-20T11:46:44;96.95;;;42.80;;
84695;SDS011;74913;40.204;44.532;2023-12-20T11:49:09;78.32;;;38.00;;
84695;SDS011;74913;40.204;44.532;2023-12-20T11:51:35;81.65;;;39.63;;
84695;SDS011;74913;40.204;44.532;2023-12-20T11:54:05;88.50;;;40.08;;
84695;SDS011;74913;40.204;44.532;2023-12-20T11:56:31;75.47;;;38.20;;
84695;SDS011;74913;40.204;44.532;2023-12-20T11:58:57;78.90;;;40.00;;
84695;SDS011;74913;40.204;44.532;2023-12-20T12:01:22;67.88;;;35.85;;
84695;SDS011;74913;40.204;44.532;2023-12-20T12:04:01;84.25;;;42.10;;
84695;SDS011;74913;40.204;44.532;2023-12-20T12:06:28;77.53;;;35.33;;
84695;SDS011;74913;40.204;44.532;2023-12-20T12:08:54;82.05;;;42.90;;
84695;SDS011;74913;40.204;44.532;2023-12-20T12:13:46;75.18;;;36.72;;
84695;SDS011;74913;40.204;44.532;2023-12-20T12:16:11;70.50;;;36.53;;
84695;SDS011;74913;40.204;44.532;2023-12-20T12:18:37;69.22;;;37.47;;
84695;SDS011;74913;40.204;44.532;2023-12-20T12:21:03;85.03;;;40.75;;
84695;SDS011;74913;40.204;44.532;2023-12-20T12:23:28;77.05;;;38.28;;
84695;SDS011;74913;40.204;44.532;2023-12-20T12:25:54;81.68;;;38.40;;
84695;SDS011;74913;40.204;44.532;2023-12-20T12:28:20;78.55;;;40.00;;
84695;SDS011;74913;40.204;44.532;2023-12-20T12:30:58;87.15;;;42.85;;
84695;SDS011;74913;40.204;44.532;2023-12-20T12:33:25;75.75;;;36.92;;
84695;SDS011;74913;40.204;44.532;2023-12-20T12:35:51;82.53;;;37.60;;
84695;SDS011;74913;40.204;44.532;2023-12-20T12:38:20;75.93;;;40.13;;
84695;SDS011;74913;40.204;44.532;2023-12-20T12:40:49;82.18;;;38.67;;
84695;SDS011;74913;40.204;44.532;2023-12-20T12:43:16;78.95;;;41.35;;
84695;SDS011;74913;40.204;44.532;2023-12-20T12:45:41;73.10;;;39.63;;
84695;SDS011;74913;40.204;44.532;2023-12-20T12:48:07;91.97;;;40.72;;
84695;SDS011;74913;40.204;44.532;2023-12-20T12:50:32;77.50;;;40.97;;
84695;SDS011;74913;40.204;44.532;2023-12-20T12:52:58;72.82;;;37.72;;
84695;SDS011;74913;40.204;44.532;2023-12-20T12:55:24;81.40;;;38.55;;
84695;SDS011;74913;40.204;44.532;2023-12-20T12:57:49;82.78;;;42.47;;
84695;SDS011;74913;40.204;44.532;2023-12-20T13:00:15;78.60;;;41.72;;
84695;SDS011;74913;40.204;44.532;2023-12-20T13:02:41;77.15;;;38.92;;
84695;SDS011;74913;40.204;44.532;2023-12-20T13:05:09;76.78;;;38.38;;
84695;SDS011;74913;40.204;44.532;2023-12-20T13:07:35;71.25;;;36.50;;
84695;SDS011;74913;40.204;44.532;2023-12-20T13:10:02;67.82;;;32.70;;
84695;SDS011;74913;40.204;44.532;2023-12-20T13:12:29;71.78;;;34.55;;
84695;SDS011;74913;40.204;44.532;2023-12-20T13:14:54;71.90;;;36.85;;
84695;SDS011;74913;40.204;44.532;2023-12-20T13:17:20;68.93;;;36.25;;
84695;SDS011;74913;40.204;44.532;2023-12-20T13:19:46;82.18;;;36.97;;
84695;SDS011;74913;40.204;44.532;2023-12-20T13:22:11;72.82;;;36.60;;
84695;SDS011;74913;40.204;44.532;2023-12-20T13:24:37;80.95;;;34.42;;
84695;SDS011;74913;40.204;44.532;2023-12-20T13:27:03;66.60;;;34.67;;
84695;SDS011;74913;40.204;44.532;2023-12-20T13:29:28;71.13;;;35.35;;
84695;SDS011;74913;40.204;44.532;2023-12-20T13:31:54;83.57;;;35.17;;
84695;SDS011;74913;40.204;44.532;2023-12-20T13:34:20;71.93;;;36.17;;
84695;SDS011;74913;40.204;44.532;2023-12-20T13:36:46;64.97;;;34.35;;
84695;SDS011;74913;40.204;44.532;2023-12-20T13:39:13;85.68;;;40.13;;
84695;SDS011;74913;40.204;44.532;2023-12-20T13:41:39;82.40;;;37.65;;
84695;SDS011;74913;40.204;44.532;2023-12-20T13:44:05;85.43;;;41.03;;
84695;SDS011;74913;40.204;44.532;2023-12-20T13:46:30;78.20;;;36.75;;
84695;SDS011;74913;40.204;44.532;2023-12-20T13:48:56;54.75;;;25.95;;
84695;SDS011;74913;40.204;44.532;2023-12-20T13:51:22;71.45;;;35.40;;
84695;SDS011;74913;40.204;44.532;2023-12-20T13:53:47;79.00;;;36.03;;
84695;SDS011;74913;40.204;44.532;2023-12-20T13:56:14;73.55;;;34.55;;
84695;SDS011;74913;40.204;44.532;2023-12-20T13:58:40;70.15;;;33.17;;
84695;SDS011;74913;40.204;44.532;2023-12-20T14:01:06;72.35;;;30.85;;
84695;SDS011;74913;40.204;44.532;2023-12-20T14:03:33;62.75;;;34.13;;
84695;SDS011;74913;40.204;44.532;2023-12-20T14:05:59;97.32;;;39.72;;
84695;SDS011;74913;40.204;44.532;2023-12-20T14:08:26;118.72;;;44.92;;
84695;SDS011;74913;40.204;44.532;2023-12-20T14:10:52;93.30;;;42.50;;
84695;SDS011;74913;40.204;44.532;2023-12-20T14:13:18;103.85;;;43.80;;
84695;SDS011;74913;40.204;44.532;2023-12-20T14:15:44;78.28;;;34.47;;
84695;SDS011;74913;40.204;44.532;2023-12-20T14:18:10;79.82;;;38.50;;
84695;SDS011;74913;40.204;44.532;2023-12-20T14:20:37;73.55;;;36.15;;